createdAt,value
2022-10-17T00:01:07.149Z,13.51
2022-10-17T00:03:35.781Z,13.50
2022-10-17T00:06:07.092Z,13.49
2022-10-17T00:08:34.905Z,13.48
2022-10-17T00:11:06.519Z,13.47
2022-10-17T00:13:34.630Z,13.48
2022-10-17T00:16:02.435Z,13.47
2022-10-17T00:18:31.547Z,13.46
2022-10-17T00:20:59.098Z,13.45
2022-10-17T00:23:27.473Z,13.42
2022-10-17T00:26:02.041Z,13.39
2022-10-17T00:28:29.677Z,13.35
2022-10-17T00:30:58.241Z,13.33
2022-10-17T00:33:25.989Z,13.29
2022-10-17T00:36:03.656Z,13.28
2022-10-17T00:38:31.274Z,13.27
2022-10-17T00:40:59.342Z,13.26
2022-10-17T00:43:27.500Z,13.23
2022-10-17T00:45:55.267Z,13.20
2022-10-17T00:48:25.450Z,13.18
2022-10-17T00:50:53.167Z,13.17
2022-10-17T00:53:22.056Z,13.17
2022-10-17T00:55:52.099Z,13.12
2022-10-17T00:58:21.951Z,13.06
2022-10-17T01:00:49.588Z,13.03
2022-10-17T01:03:17.593Z,13.03
2022-10-17T01:05:45.289Z,13.04
2022-10-17T01:08:13.895Z,13.04
2022-10-17T01:10:50.452Z,13.05
2022-10-17T01:13:26.042Z,13.05
2022-10-17T01:16:05.104Z,13.01
2022-10-17T01:18:47.011Z,13.01
2022-10-17T01:21:39.094Z,12.99
2022-10-17T01:24:36.048Z,12.95
2022-10-17T01:27:43.255Z,12.94
2022-10-17T01:30:35.192Z,12.92
2022-10-17T01:33:11.754Z,12.86
2022-10-17T01:35:45.756Z,12.81
2022-10-17T01:38:19.517Z,12.77
2022-10-17T01:40:51.920Z,12.75
2022-10-17T01:43:24.579Z,12.70
2022-10-17T01:45:58.875Z,12.70
2022-10-17T01:48:35.228Z,12.66
2022-10-17T01:51:09.773Z,12.65
2022-10-17T01:53:42.443Z,12.63
2022-10-17T01:56:14.150Z,12.60
2022-10-17T01:58:47.225Z,12.60
2022-10-17T02:01:15.110Z,12.57
2022-10-17T02:03:47.697Z,12.56
2022-10-17T02:06:15.232Z,12.54
2022-10-17T02:08:44.827Z,12.55
2022-10-17T02:11:15.793Z,12.52
2022-10-17T02:13:56.549Z,12.52
2022-10-17T02:16:35.333Z,12.51
2022-10-17T02:19:18.461Z,12.52
2022-10-17T02:21:52.209Z,12.52
2022-10-17T02:24:26.595Z,12.52
2022-10-17T02:27:01.783Z,12.51
2022-10-17T02:29:34.139Z,12.53
2022-10-17T02:32:07.573Z,12.52
2022-10-17T02:34:41.832Z,12.52
2022-10-17T02:37:12.377Z,12.51
2022-10-17T02:39:42.031Z,12.49
2022-10-17T02:42:14.784Z,12.49
2022-10-17T02:44:45.283Z,12.44
2022-10-17T02:47:22.946Z,12.40
2022-10-17T02:49:55.567Z,12.37
2022-10-17T02:52:28.719Z,12.32
2022-10-17T02:55:03.044Z,12.30
2022-10-17T02:57:35.187Z,12.24
2022-10-17T03:00:07.499Z,12.24
2022-10-17T03:02:40.881Z,12.19
2022-10-17T03:05:13.420Z,12.18
2022-10-17T03:07:40.989Z,12.16
2022-10-17T03:10:09.074Z,12.16
2022-10-17T03:12:37.496Z,12.13
2022-10-17T03:15:06.189Z,12.11
2022-10-17T03:17:34.261Z,12.10
2022-10-17T03:20:01.996Z,12.10
2022-10-17T03:22:32.480Z,12.05
2022-10-17T03:25:02.141Z,12.02
2022-10-17T03:27:30.306Z,11.95
2022-10-17T03:29:58.091Z,11.93
2022-10-17T03:32:25.710Z,11.90
2022-10-17T03:34:53.251Z,11.89
2022-10-17T03:37:21.472Z,11.88
2022-10-17T03:39:51.728Z,11.89
2022-10-17T03:42:19.400Z,11.87
2022-10-17T03:44:47.052Z,11.88
2022-10-17T03:47:14.606Z,11.87
2022-10-17T03:49:42.813Z,11.91
2022-10-17T03:52:12.428Z,11.92
2022-10-17T03:54:40.110Z,11.90
2022-10-17T03:57:09.150Z,11.87
2022-10-17T03:59:37.271Z,11.86
2022-10-17T04:02:10.512Z,11.83
2022-10-17T04:04:38.161Z,11.82
2022-10-17T04:07:06.107Z,11.76
2022-10-17T04:09:36.970Z,11.75
2022-10-17T04:12:10.833Z,11.77
2022-10-17T04:14:39.079Z,11.80
2022-10-17T04:17:06.649Z,11.83
2022-10-17T04:19:35.655Z,11.86
2022-10-17T04:22:03.944Z,11.84
2022-10-17T04:24:35.037Z,11.83
2022-10-17T04:27:22.461Z,11.82
2022-10-17T04:29:50.054Z,11.79
2022-10-17T04:32:22.631Z,11.77
2022-10-17T04:35:10.452Z,11.76
2022-10-17T04:37:40.459Z,11.75
2022-10-17T04:40:13.752Z,11.72
2022-10-17T04:42:42.998Z,11.69
2022-10-17T04:45:14.056Z,11.72
2022-10-17T04:47:42.566Z,11.70
2022-10-17T04:50:10.654Z,11.67
2022-10-17T04:52:39.950Z,11.70
2022-10-17T04:55:09.287Z,11.72
2022-10-17T04:57:37.330Z,11.75
2022-10-17T05:00:17.003Z,11.75
2022-10-17T05:02:56.063Z,11.67
2022-10-17T05:05:23.564Z,11.64
2022-10-17T05:07:53.976Z,11.63
2022-10-17T05:10:25.701Z,11.58
2022-10-17T05:12:54.777Z,11.55
2022-10-17T05:15:26.101Z,11.49
2022-10-17T05:17:56.106Z,11.47
2022-10-17T05:20:24.653Z,11.45
2022-10-17T05:22:52.297Z,11.47
2022-10-17T05:25:21.287Z,11.54
2022-10-17T05:27:48.830Z,11.56
2022-10-17T05:30:16.613Z,11.53
2022-10-17T05:32:46.267Z,11.53
2022-10-17T05:35:14.053Z,11.50
2022-10-17T05:37:42.277Z,11.44
2022-10-17T05:40:11.553Z,11.37
2022-10-17T05:45:09.983Z,11.29
2022-10-17T05:47:37.578Z,11.28
2022-10-17T05:50:07.915Z,11.27
2022-10-17T05:52:54.068Z,11.28
2022-10-17T05:55:23.776Z,11.28
2022-10-17T05:57:52.694Z,11.29
2022-10-17T06:00:21.596Z,11.32
2022-10-17T06:02:56.574Z,11.34
2022-10-17T06:05:26.384Z,11.30
2022-10-17T06:07:57.038Z,11.30
2022-10-17T06:10:27.875Z,11.28
2022-10-17T06:12:56.587Z,11.29
2022-10-17T06:15:24.240Z,11.31
2022-10-17T06:17:58.173Z,11.32
2022-10-17T06:20:27.283Z,11.36
2022-10-17T06:22:54.898Z,11.37
2022-10-17T06:25:36.568Z,11.40
2022-10-17T06:28:04.730Z,11.45
2022-10-17T06:30:32.473Z,11.48
2022-10-17T06:33:00.010Z,11.53
2022-10-17T06:35:28.863Z,11.55
2022-10-17T06:37:57.753Z,11.55
2022-10-17T06:40:25.841Z,11.52
2022-10-17T06:42:53.516Z,11.54
2022-10-17T06:45:26.351Z,11.50
2022-10-17T06:48:10.122Z,11.57
2022-10-17T06:50:46.280Z,11.61
2022-10-17T06:53:18.021Z,11.67
2022-10-17T06:55:53.026Z,11.71
2022-10-17T06:58:43.889Z,11.76
2022-10-17T07:01:24.099Z,11.84
2022-10-17T07:03:55.834Z,11.93
2022-10-17T07:06:25.425Z,12.00
2022-10-17T07:08:55.584Z,12.21
2022-10-17T07:11:23.735Z,12.52
2022-10-17T07:13:54.088Z,12.49
2022-10-17T07:16:23.084Z,12.52
2022-10-17T07:18:58.529Z,12.60
2022-10-17T07:21:27.448Z,12.66
2022-10-17T07:23:55.300Z,12.72
2022-10-17T07:26:23.121Z,12.77
2022-10-17T07:28:54.122Z,12.85
2022-10-17T07:31:48.735Z,12.92
2022-10-17T07:34:16.421Z,12.97
2022-10-17T07:36:46.812Z,13.06
2022-10-17T07:39:15.878Z,13.12
2022-10-17T07:41:43.380Z,13.16
2022-10-17T07:44:11.512Z,13.26
2022-10-17T07:46:44.848Z,13.35
2022-10-17T07:49:12.682Z,13.42
2022-10-17T07:51:41.512Z,13.57
2022-10-17T07:54:10.429Z,13.64
2022-10-17T07:56:38.202Z,13.74
2022-10-17T07:59:08.494Z,13.83
2022-10-17T08:01:37.850Z,13.85
2022-10-17T08:04:05.357Z,13.92
2022-10-17T08:06:32.896Z,13.99
2022-10-17T08:09:01.514Z,14.09
2022-10-17T08:11:30.415Z,14.22
2022-10-17T08:13:57.952Z,14.36
2022-10-17T08:16:25.486Z,14.48
2022-10-17T08:18:52.983Z,14.65
2022-10-17T08:21:20.776Z,14.74
2022-10-17T08:23:48.314Z,14.88
2022-10-17T08:26:17.181Z,15.04
2022-10-17T08:28:46.147Z,15.23
2022-10-17T08:31:15.700Z,15.35
2022-10-17T08:33:43.689Z,15.57
2022-10-17T08:36:14.148Z,15.78
2022-10-17T08:38:43.624Z,15.98
2022-10-17T08:41:21.105Z,16.23
2022-10-17T08:44:11.912Z,16.39
2022-10-17T08:46:43.245Z,16.59
2022-10-17T08:49:14.613Z,16.85
2022-10-17T08:51:48.971Z,17.02
2022-10-17T08:54:21.393Z,17.21
2022-10-17T08:56:51.050Z,17.41
2022-10-17T08:59:24.380Z,17.56
2022-10-17T09:01:58.056Z,17.77
2022-10-17T09:04:47.035Z,18.06
2022-10-17T09:07:22.985Z,18.28
2022-10-17T09:10:00.056Z,18.51
2022-10-17T09:12:37.427Z,18.76
2022-10-17T09:15:32.704Z,19.03
2022-10-17T09:18:04.285Z,19.21
2022-10-17T09:20:35.228Z,19.45
2022-10-17T09:23:11.152Z,19.59
2022-10-17T09:25:44.804Z,19.85
2022-10-17T09:28:18.890Z,20.03
2022-10-17T09:30:52.660Z,20.24
2022-10-17T09:33:34.562Z,20.42
2022-10-17T09:36:06.140Z,20.63
2022-10-17T09:38:40.083Z,20.79
2022-10-17T09:41:42.800Z,20.99
2022-10-17T09:44:15.326Z,21.13
2022-10-17T09:46:55.674Z,21.15
2022-10-17T09:49:30.170Z,21.32
2022-10-17T09:51:58.325Z,21.51
2022-10-17T09:54:29.938Z,21.63
2022-10-17T09:56:59.507Z,21.67
2022-10-17T09:59:35.248Z,21.77
2022-10-17T10:02:16.968Z,21.99
2022-10-17T10:05:09.560Z,22.17
2022-10-17T10:07:39.291Z,22.32
2022-10-17T10:10:23.750Z,22.50
2022-10-17T10:13:04.746Z,22.78
2022-10-17T10:15:35.819Z,23.07
2022-10-17T10:18:04.864Z,23.35
2022-10-17T10:20:35.545Z,23.58
2022-10-17T10:23:14.261Z,23.78
2022-10-17T10:25:53.558Z,24.02
2022-10-17T10:28:23.408Z,24.20
2022-10-17T10:30:52.723Z,24.47
2022-10-17T10:33:23.892Z,24.54
2022-10-17T10:36:01.133Z,24.62
2022-10-17T10:38:29.214Z,24.65
2022-10-17T10:40:58.485Z,24.82
2022-10-17T10:43:33.901Z,24.81
2022-10-17T10:46:01.952Z,25.04
2022-10-17T10:48:35.146Z,25.09
2022-10-17T10:51:06.549Z,25.30
2022-10-17T10:53:42.636Z,25.60
2022-10-17T10:56:17.639Z,25.74
2022-10-17T10:58:56.091Z,26.06
2022-10-17T11:01:32.458Z,26.34
2022-10-17T11:04:20.517Z,26.58
2022-10-17T11:06:51.510Z,26.70
2022-10-17T11:09:33.766Z,26.83
2022-10-17T11:12:06.279Z,26.96
2022-10-17T11:14:43.254Z,27.22
2022-10-17T11:17:22.660Z,27.43
2022-10-17T11:20:00.383Z,27.46
2022-10-17T11:22:32.177Z,27.56
2022-10-17T11:25:04.952Z,27.74
2022-10-17T11:27:34.955Z,28.17
2022-10-17T11:30:03.527Z,28.44
2022-10-17T11:32:38.609Z,28.60
2022-10-17T11:35:17.553Z,28.80
2022-10-17T11:37:50.920Z,29.16
2022-10-17T11:40:24.470Z,29.24
2022-10-17T11:42:58.374Z,29.54
2022-10-17T11:45:28.980Z,29.50
2022-10-17T11:48:02.684Z,29.97
2022-10-17T11:53:25.619Z,29.66
2022-10-17T11:55:55.407Z,29.94
2022-10-17T11:58:31.644Z,28.75
2022-10-17T12:01:08.594Z,29.05
2022-10-17T12:03:50.224Z,28.84
2022-10-17T12:06:33.141Z,28.16
2022-10-17T12:09:11.353Z,28.74
2022-10-17T12:11:50.675Z,28.32
2022-10-17T12:14:41.720Z,28.23
2022-10-17T12:17:30.369Z,28.66
2022-10-17T12:20:27.287Z,28.77
2022-10-17T12:22:58.718Z,28.57
2022-10-17T12:25:30.213Z,28.02
2022-10-17T12:28:13.054Z,28.36
2022-10-17T12:30:52.439Z,28.77
2022-10-17T12:33:22.900Z,28.90
2022-10-17T12:35:52.084Z,29.72
2022-10-17T12:38:26.964Z,30.55
2022-10-17T12:40:59.611Z,31.12
2022-10-17T12:46:55.326Z,31.69
2022-10-17T12:49:49.698Z,31.27
2022-10-17T12:52:25.666Z,30.04
2022-10-17T12:55:11.521Z,29.06
2022-10-17T12:57:45.357Z,30.49
2022-10-17T13:00:20.295Z,31.01
2022-10-17T13:02:49.349Z,31.49
2022-10-17T13:05:23.141Z,31.47
2022-10-17T13:07:52.875Z,31.90
2022-10-17T13:13:06.884Z,32.10
2022-10-17T13:15:35.117Z,32.40
2022-10-17T13:18:03.063Z,31.43
2022-10-17T13:20:32.523Z,32.02
2022-10-17T13:23:00.224Z,32.57
2022-10-17T13:25:29.516Z,33.11
2022-10-17T13:28:15.752Z,32.89
2022-10-17T13:30:49.635Z,32.54
2022-10-17T13:33:31.888Z,33.22
2022-10-17T13:36:01.361Z,33.13
2022-10-17T13:38:33.405Z,33.64
2022-10-17T13:41:33.577Z,33.99
2022-10-17T13:43:52.992Z,33.36
2022-10-17T13:46:39.229Z,31.39
2022-10-17T13:49:13.648Z,32.61
2022-10-17T13:51:45.465Z,33.43
2022-10-17T13:54:32.466Z,33.47
2022-10-17T13:57:02.721Z,33.69
2022-10-17T13:59:35.036Z,33.94
2022-10-17T14:02:02.967Z,34.93
2022-10-17T14:04:44.669Z,34.81
2022-10-17T14:07:27.697Z,34.98
2022-10-17T14:09:55.662Z,35.71
2022-10-17T14:12:24.668Z,36.05
2022-10-17T14:15:11.133Z,36.06
2022-10-17T14:17:40.321Z,35.20
2022-10-17T14:20:48.263Z,33.65
2022-10-17T14:23:21.445Z,34.17
2022-10-17T14:25:45.837Z,34.28
2022-10-17T14:28:18.246Z,34.31
2022-10-17T14:31:03.204Z,34.84
2022-10-17T14:33:32.402Z,35.44
2022-10-17T14:36:03.576Z,35.52
2022-10-17T14:38:31.575Z,36.14
2022-10-17T14:41:30.545Z,36.29
2022-10-17T14:43:56.991Z,35.53
2022-10-17T14:46:24.880Z,35.10
2022-10-17T14:48:54.877Z,34.51
2022-10-17T14:51:22.420Z,34.00
2022-10-17T14:54:05.507Z,33.79
2022-10-17T14:56:40.788Z,33.45
2022-10-17T14:59:13.756Z,32.71
2022-10-17T15:01:45.727Z,32.45
2022-10-17T15:04:13.221Z,32.00
2022-10-17T15:06:41.289Z,31.71
2022-10-17T15:09:08.902Z,31.50
2022-10-17T15:11:36.908Z,31.41
2022-10-17T15:14:04.465Z,31.35
2022-10-17T15:16:35.348Z,31.13
2022-10-17T15:19:02.877Z,31.00
2022-10-17T15:21:40.495Z,30.60
2022-10-17T15:24:09.552Z,30.13
2022-10-17T15:26:37.766Z,29.68
2022-10-17T15:29:06.083Z,29.62
2022-10-17T15:31:35.829Z,29.64
2022-10-17T15:34:03.351Z,29.60
2022-10-17T15:36:40.079Z,29.07
2022-10-17T15:39:07.647Z,28.64
2022-10-17T15:41:35.539Z,28.62
2022-10-17T15:44:03.147Z,28.29
2022-10-17T15:46:33.701Z,27.92
2022-10-17T15:49:07.433Z,27.61
2022-10-17T15:51:35.297Z,27.21
2022-10-17T15:54:03.025Z,26.66
2022-10-17T15:56:35.783Z,26.18
2022-10-17T15:59:04.347Z,25.86
2022-10-17T16:01:33.364Z,25.71
2022-10-17T16:04:01.144Z,25.55
2022-10-17T16:06:30.240Z,25.24
2022-10-17T16:08:57.767Z,24.96
2022-10-17T16:11:36.708Z,24.63
2022-10-17T16:14:06.600Z,24.35
2022-10-17T16:16:34.333Z,24.04
2022-10-17T16:19:02.439Z,23.76
2022-10-17T16:21:33.461Z,23.64
2022-10-17T16:24:01.096Z,23.50
2022-10-17T16:26:29.279Z,23.21
2022-10-17T16:28:58.050Z,23.05
2022-10-17T16:31:29.150Z,22.82
2022-10-17T16:33:58.636Z,22.71
2022-10-17T16:36:26.367Z,22.46
2022-10-17T16:38:55.558Z,22.23
2022-10-17T16:41:25.011Z,21.98
2022-10-17T16:43:54.280Z,21.83
2022-10-17T16:46:22.787Z,21.62
2022-10-17T16:48:50.828Z,21.48
2022-10-17T16:51:19.946Z,21.29
2022-10-17T16:53:49.972Z,21.15
2022-10-17T16:56:21.386Z,20.99
2022-10-17T16:58:49.659Z,20.78
2022-10-17T17:01:20.061Z,20.57
2022-10-17T17:03:48.775Z,20.45
2022-10-17T17:06:19.072Z,20.44
2022-10-17T17:08:47.612Z,20.39
2022-10-17T17:11:20.640Z,20.30
2022-10-17T17:13:48.452Z,20.13
2022-10-17T17:16:18.407Z,20.01
2022-10-17T17:18:46.791Z,19.85
2022-10-17T17:21:14.365Z,19.76
2022-10-17T17:23:43.772Z,19.63
2022-10-17T17:26:13.606Z,19.53
2022-10-17T17:28:42.742Z,19.49
2022-10-17T17:31:12.171Z,19.38
2022-10-17T17:33:40.949Z,19.29
2022-10-17T17:36:09.292Z,19.18
2022-10-17T17:38:37.369Z,19.13
2022-10-17T17:41:05.478Z,19.07
2022-10-17T17:43:33.026Z,18.90
2022-10-17T17:46:03.308Z,18.78
2022-10-17T17:48:31.146Z,18.70
2022-10-17T17:51:03.552Z,18.63
2022-10-17T17:53:31.232Z,18.56
2022-10-17T17:56:02.338Z,18.44
2022-10-17T17:58:29.875Z,18.37
2022-10-17T18:00:57.661Z,18.32
2022-10-17T18:03:27.196Z,18.27
2022-10-17T18:05:54.961Z,18.21
2022-10-17T18:08:23.123Z,18.18
2022-10-17T18:10:54.356Z,18.15
2022-10-17T18:13:21.906Z,18.14
2022-10-17T18:15:51.748Z,18.13
2022-10-17T18:18:19.632Z,18.13
2022-10-17T18:20:48.498Z,18.12
2022-10-17T18:23:17.670Z,18.10
2022-10-17T18:25:54.257Z,18.06
2022-10-17T18:28:21.867Z,18.00
2022-10-17T18:30:49.777Z,18.02
2022-10-17T18:33:17.611Z,18.02
2022-10-17T18:35:45.171Z,17.99
2022-10-17T18:38:14.044Z,17.98
2022-10-17T18:40:41.569Z,17.94
2022-10-17T18:43:09.083Z,17.93
2022-10-17T18:45:36.635Z,17.90
2022-10-17T18:48:04.164Z,17.89
2022-10-17T18:50:31.869Z,17.85
2022-10-17T18:52:59.704Z,17.79
2022-10-17T18:55:28.657Z,17.77
2022-10-17T18:57:56.264Z,17.68
2022-10-17T19:00:23.823Z,17.65
2022-10-17T19:02:51.390Z,17.56
2022-10-17T19:05:19.085Z,17.40
2022-10-17T19:07:47.218Z,17.36
2022-10-17T19:10:14.844Z,17.34
2022-10-17T19:12:43.734Z,17.29
2022-10-17T19:15:11.407Z,17.25
2022-10-17T19:17:38.976Z,17.25
2022-10-17T19:20:07.929Z,17.20
2022-10-17T19:22:35.472Z,17.19
2022-10-17T19:25:03.074Z,17.16
2022-10-17T19:27:31.005Z,17.10
2022-10-17T19:30:00.317Z,17.07
2022-10-17T19:32:28.191Z,17.02
2022-10-17T19:34:56.073Z,17.04
2022-10-17T19:37:23.669Z,17.00
2022-10-17T19:39:51.460Z,17.00
2022-10-17T19:42:19.077Z,17.00
2022-10-17T19:44:46.881Z,16.97
2022-10-17T19:47:15.808Z,16.95
2022-10-17T19:49:47.694Z,16.88
2022-10-17T19:52:17.379Z,16.87
2022-10-17T19:54:44.933Z,16.82
2022-10-17T19:57:12.505Z,16.74
2022-10-17T19:59:40.100Z,16.68
2022-10-17T20:02:07.741Z,16.66
2022-10-17T20:04:42.079Z,16.66
2022-10-17T20:07:17.405Z,16.63
2022-10-17T20:09:45.027Z,16.60
2022-10-17T20:12:12.678Z,16.58
2022-10-17T20:14:41.220Z,16.56
2022-10-17T20:17:09.055Z,16.53
2022-10-17T20:19:38.064Z,16.51
2022-10-17T20:22:05.708Z,16.45
2022-10-17T20:24:33.398Z,16.42
2022-10-17T20:27:01.115Z,16.37
2022-10-17T20:29:28.920Z,16.29
2022-10-17T20:31:57.588Z,16.26
2022-10-17T20:34:25.300Z,16.26
2022-10-17T20:36:54.485Z,16.24
2022-10-17T20:39:22.197Z,16.21
2022-10-17T20:41:50.007Z,16.18
2022-10-17T20:44:17.722Z,16.09
2022-10-17T20:47:00.556Z,16.06
2022-10-17T20:49:30.059Z,16.04
2022-10-17T20:51:59.148Z,16.02
2022-10-17T20:54:28.238Z,15.98
2022-10-17T20:56:57.802Z,15.96
2022-10-17T20:59:28.085Z,15.93
2022-10-17T21:01:56.094Z,15.91
2022-10-17T21:07:12.813Z,15.82
2022-10-17T21:09:40.426Z,15.83
2022-10-17T21:12:08.028Z,15.82
2022-10-17T21:14:36.330Z,15.82
2022-10-17T21:17:05.501Z,15.81
2022-10-17T21:19:33.392Z,15.77
2022-10-17T21:22:01.284Z,15.73
2022-10-17T21:24:31.445Z,15.72
2022-10-17T21:26:59.016Z,15.66
2022-10-17T21:29:26.808Z,15.62
2022-10-17T21:31:54.390Z,15.58
2022-10-17T21:34:24.965Z,15.56
2022-10-17T21:36:53.475Z,15.54
2022-10-17T21:39:21.731Z,15.52
2022-10-17T21:41:50.777Z,15.51
2022-10-17T21:44:19.994Z,15.47
2022-10-17T21:46:48.252Z,15.50
2022-10-17T21:49:17.817Z,15.50
2022-10-17T21:51:45.829Z,15.51
2022-10-17T21:54:13.382Z,15.50
2022-10-17T21:56:41.653Z,15.47
2022-10-17T21:59:10.831Z,15.48
2022-10-17T22:01:40.835Z,15.45
2022-10-17T22:04:11.801Z,15.48
2022-10-17T22:06:41.656Z,15.46
2022-10-17T22:09:13.738Z,15.45
2022-10-17T22:11:41.615Z,15.42
2022-10-17T22:14:14.496Z,15.35
2022-10-17T22:16:44.120Z,15.33
2022-10-17T22:19:13.253Z,15.30
2022-10-17T22:21:40.874Z,15.30
2022-10-17T22:24:11.408Z,15.25
2022-10-17T22:26:39.668Z,15.21
2022-10-17T22:29:08.370Z,15.21
2022-10-17T22:31:38.202Z,15.21
2022-10-17T22:34:07.133Z,15.21
2022-10-17T22:36:35.293Z,15.20
2022-10-17T22:39:03.149Z,15.18
2022-10-17T22:41:30.886Z,15.18
2022-10-17T22:43:58.432Z,15.16
2022-10-17T22:46:26.593Z,15.16
2022-10-17T22:48:55.569Z,15.15
2022-10-17T22:53:51.842Z,15.11
2022-10-17T22:56:21.442Z,15.05
2022-10-17T22:58:49.415Z,15.09
2022-10-17T23:01:19.473Z,15.07
2022-10-17T23:03:47.780Z,15.05
2022-10-17T23:06:17.215Z,15.04
2022-10-17T23:08:45.227Z,15.01
2022-10-17T23:11:13.022Z,14.98
2022-10-17T23:13:40.691Z,14.97
2022-10-17T23:16:09.142Z,14.91
2022-10-17T23:18:38.024Z,14.90
2022-10-17T23:21:06.517Z,14.86
2022-10-17T23:23:35.748Z,14.87
2022-10-17T23:26:08.002Z,14.86
2022-10-17T23:28:35.993Z,14.83
2022-10-17T23:31:15.314Z,14.84
2022-10-17T23:33:44.808Z,14.87
2022-10-17T23:36:13.639Z,14.85
2022-10-17T23:38:44.556Z,14.85
2022-10-17T23:41:27.267Z,14.84
2022-10-17T23:43:54.836Z,14.84
2022-10-17T23:46:22.422Z,14.84
2022-10-17T23:48:50.176Z,14.84
2022-10-17T23:51:18.115Z,14.83
2022-10-17T23:53:46.977Z,14.84
2022-10-17T23:56:15.043Z,14.84
2022-10-17T23:58:42.697Z,14.86
